createdAt,value
2018-02-10T00:01:47.431Z,66.80
2018-02-10T00:04:14.955Z,64.73
2018-02-10T00:06:42.400Z,64.33
2018-02-10T00:09:10.614Z,51.83
2018-02-10T00:11:38.042Z,68.17
2018-02-10T00:14:05.504Z,54.97
2018-02-10T00:16:33.724Z,70.17
2018-02-10T00:19:01.169Z,67.77
2018-02-10T00:21:29.706Z,67.57
2018-02-10T00:23:57.920Z,69.37
2018-02-10T00:26:25.359Z,52.27
2018-02-10T00:28:52.804Z,50.17
2018-02-10T00:31:20.260Z,67.73
2018-02-10T00:33:48.470Z,64.27
2018-02-10T00:36:15.922Z,76.33
2018-02-10T00:38:43.360Z,67.27
2018-02-10T00:41:10.805Z,68.57
2018-02-10T00:43:38.249Z,61.93
2018-02-10T00:46:06.494Z,65.47
2018-02-10T00:48:33.941Z,64.60
2018-02-10T00:51:01.399Z,60.00
2018-02-10T00:53:29.612Z,76.80
2018-02-10T00:55:57.060Z,54.73
2018-02-10T00:58:24.488Z,54.23
2018-02-10T01:00:51.936Z,60.77
2018-02-10T01:03:19.373Z,59.33
2018-02-10T01:05:46.818Z,58.00
2018-02-10T01:08:14.260Z,62.50
2018-02-10T01:10:42.480Z,62.60
2018-02-10T01:13:09.935Z,65.00
2018-02-10T01:15:37.368Z,63.90
2018-02-10T01:18:04.812Z,59.63
2018-02-10T01:20:33.025Z,65.30
2018-02-10T01:23:00.478Z,55.13
2018-02-10T01:25:28.910Z,47.37
2018-02-10T01:27:57.127Z,60.53
2018-02-10T01:30:24.563Z,58.13
2018-02-10T01:32:52.007Z,44.37
2018-02-10T01:35:20.206Z,55.00
2018-02-10T01:37:47.640Z,47.37
2018-02-10T01:40:15.872Z,61.57
2018-02-10T01:42:43.305Z,55.07
2018-02-10T01:45:10.749Z,56.57
2018-02-10T01:47:38.197Z,56.47
2018-02-10T01:50:18.244Z,59.57
2018-02-10T01:52:46.448Z,50.30
2018-02-10T01:55:13.892Z,66.60
2018-02-10T01:57:41.333Z,50.60
2018-02-10T02:00:09.542Z,49.30
2018-02-10T02:02:36.987Z,52.07
2018-02-10T02:05:04.424Z,52.90
2018-02-10T02:07:31.868Z,46.07
2018-02-10T02:10:00.083Z,45.37
2018-02-10T02:12:27.523Z,57.17
2018-02-10T02:14:54.968Z,66.80
2018-02-10T02:17:23.171Z,50.47
2018-02-10T02:19:50.605Z,49.93
2018-02-10T02:22:18.042Z,55.50
2018-02-10T02:24:46.262Z,62.13
2018-02-10T02:27:13.692Z,57.47
2018-02-10T02:29:41.900Z,56.43
2018-02-10T02:32:09.344Z,62.00
2018-02-10T02:34:36.779Z,56.47
2018-02-10T02:37:04.990Z,61.23
2018-02-10T02:39:32.449Z,66.90
2018-02-10T02:41:59.884Z,50.37
2018-02-10T02:44:28.366Z,67.27
2018-02-10T02:46:55.799Z,60.40
2018-02-10T02:49:24.018Z,59.80
2018-02-10T02:51:51.458Z,58.43
2018-02-10T02:54:18.910Z,45.47
2018-02-10T02:56:46.349Z,51.27
2018-02-10T02:59:14.554Z,52.57
2018-02-10T03:01:42.991Z,59.63
2018-02-10T03:04:10.433Z,53.60
2018-02-10T03:06:37.870Z,57.80
2018-02-10T03:09:05.319Z,49.30
2018-02-10T03:11:32.751Z,51.43
2018-02-10T03:14:00.200Z,53.93
2018-02-10T03:16:30.411Z,53.13
2018-02-10T03:18:58.623Z,70.10
2018-02-10T03:21:26.080Z,52.43
2018-02-10T03:23:53.524Z,62.43
2018-02-10T03:26:20.973Z,56.70
2018-02-10T03:28:48.425Z,50.43
2018-02-10T03:31:15.872Z,47.17
2018-02-10T03:33:44.082Z,49.03
2018-02-10T03:36:11.533Z,51.37
2018-02-10T03:38:38.948Z,49.57
2018-02-10T03:41:06.379Z,58.50
2018-02-10T03:43:33.828Z,51.07
2018-02-10T03:46:01.262Z,57.10
2018-02-10T03:48:28.710Z,58.30
2018-02-10T03:50:56.187Z,52.03
2018-02-10T03:53:23.637Z,46.00
2018-02-10T03:55:51.081Z,57.13
2018-02-10T03:58:18.525Z,64.80
2018-02-10T04:00:46.730Z,58.53
2018-02-10T04:03:14.183Z,59.97
2018-02-10T04:05:41.639Z,67.63
2018-02-10T04:08:10.090Z,66.20
2018-02-10T04:10:38.306Z,63.83
2018-02-10T04:13:05.749Z,67.70
2018-02-10T04:15:33.191Z,68.17
2018-02-10T04:18:00.628Z,59.17
2018-02-10T04:20:28.853Z,60.53
2018-02-10T04:22:56.303Z,54.27
2018-02-10T04:25:23.744Z,64.03
2018-02-10T04:27:51.200Z,59.13
2018-02-10T04:30:18.628Z,61.63
2018-02-10T04:32:46.849Z,71.27
2018-02-10T04:35:14.326Z,64.07
2018-02-10T04:37:41.824Z,63.73
2018-02-10T04:40:10.035Z,60.33
2018-02-10T04:42:37.484Z,55.83
2018-02-10T04:45:04.933Z,61.17
2018-02-10T04:47:32.371Z,61.43
2018-02-10T04:50:00.630Z,62.10
2018-02-10T04:52:28.045Z,60.73
2018-02-10T04:54:55.486Z,73.37
2018-02-10T04:57:22.990Z,63.00
2018-02-10T04:59:50.377Z,69.33
2018-02-10T05:02:18.591Z,57.13
2018-02-10T05:04:46.046Z,65.00
2018-02-10T05:07:13.499Z,65.20
2018-02-10T05:09:40.940Z,68.23
2018-02-10T05:12:08.387Z,72.30
2018-02-10T05:14:36.668Z,61.00
2018-02-10T05:17:04.871Z,79.77
2018-02-10T05:19:32.321Z,57.10
2018-02-10T05:21:59.848Z,76.60
2018-02-10T05:24:28.062Z,62.13
2018-02-10T05:26:55.509Z,71.93
2018-02-10T05:29:22.966Z,68.23
2018-02-10T05:31:50.411Z,66.87
2018-02-10T05:34:17.868Z,74.67
2018-02-10T05:36:45.312Z,65.13
2018-02-10T05:39:13.530Z,67.30
2018-02-10T05:41:41.044Z,78.20
2018-02-10T05:44:09.258Z,66.53
2018-02-10T05:46:36.699Z,67.00
2018-02-10T05:49:04.152Z,66.47
2018-02-10T05:51:31.588Z,60.70
2018-02-10T05:53:59.806Z,66.37
2018-02-10T05:56:27.265Z,67.03
2018-02-10T05:58:54.698Z,63.60
2018-02-10T06:01:22.157Z,68.90
2018-02-10T06:03:49.598Z,64.43
2018-02-10T06:06:17.884Z,63.93
2018-02-10T06:08:45.374Z,72.30
2018-02-10T06:11:12.827Z,68.20
2018-02-10T06:13:40.267Z,69.87
2018-02-10T06:16:07.817Z,56.97
2018-02-10T06:18:36.080Z,59.70
2018-02-10T06:21:04.424Z,59.30
2018-02-10T06:23:31.919Z,59.67
2018-02-10T06:26:00.220Z,63.60
2018-02-10T06:28:27.655Z,52.70
2018-02-10T06:30:55.937Z,63.53
2018-02-10T06:33:24.140Z,62.87
2018-02-10T06:35:51.579Z,64.03
2018-02-10T06:38:19.127Z,57.07
2018-02-10T06:40:47.339Z,63.87
2018-02-10T06:43:14.808Z,63.63
2018-02-10T06:45:42.250Z,71.73
2018-02-10T06:48:09.719Z,51.73
2018-02-10T06:50:37.169Z,66.17
2018-02-10T06:53:04.605Z,59.70
2018-02-10T06:55:32.076Z,64.37
2018-02-10T06:57:59.526Z,61.30
2018-02-10T07:00:26.984Z,63.93
2018-02-10T07:02:54.419Z,56.87
2018-02-10T07:05:23.341Z,50.57
2018-02-10T07:07:50.751Z,52.13
2018-02-10T07:10:18.953Z,55.50
2018-02-10T07:12:46.409Z,43.53
2018-02-10T07:15:14.627Z,61.63
2018-02-10T07:17:42.095Z,49.70
2018-02-10T07:20:09.547Z,51.47
2018-02-10T07:22:37.206Z,62.47
2018-02-10T07:25:04.651Z,49.80
2018-02-10T07:27:33.424Z,56.43
2018-02-10T07:30:00.875Z,59.40
2018-02-10T07:32:28.309Z,57.63
2018-02-10T07:34:58.528Z,51.50
2018-02-10T07:37:26.749Z,44.27
2018-02-10T07:39:54.198Z,56.80
2018-02-10T07:42:21.666Z,50.27
2018-02-10T07:44:49.092Z,50.83
2018-02-10T07:47:16.537Z,52.43
2018-02-10T07:49:43.984Z,49.83
2018-02-10T07:52:12.198Z,47.10
2018-02-10T07:54:39.653Z,50.13
2018-02-10T07:57:07.100Z,54.23
2018-02-10T07:59:34.540Z,52.27
2018-02-10T08:02:02.012Z,45.97
2018-02-10T08:04:29.445Z,50.70
2018-02-10T08:06:56.883Z,52.77
2018-02-10T08:09:29.395Z,42.17
2018-02-10T08:12:03.971Z,45.33
2018-02-10T08:14:32.388Z,42.43
2018-02-10T08:17:00.595Z,45.23
2018-02-10T08:19:28.036Z,53.30
2018-02-10T08:21:55.468Z,43.17
2018-02-10T08:24:25.687Z,48.87
2018-02-10T08:26:53.898Z,46.73
2018-02-10T08:29:21.348Z,45.17
2018-02-10T08:31:48.792Z,50.00
2018-02-10T08:34:16.234Z,44.60
2018-02-10T08:36:44.439Z,49.77
2018-02-10T08:39:11.890Z,47.77
2018-02-10T08:41:40.344Z,46.80
2018-02-10T08:44:08.560Z,47.57
2018-02-10T08:46:35.994Z,47.53
2018-02-10T08:49:03.450Z,46.80
2018-02-10T08:51:30.892Z,55.60
2018-02-10T08:53:59.137Z,38.90
2018-02-10T08:56:26.551Z,45.67
2018-02-10T08:58:53.996Z,50.50
2018-02-10T09:01:21.433Z,50.20
2018-02-10T09:03:48.867Z,44.30
2018-02-10T09:06:17.285Z,48.63
2018-02-10T09:08:48.719Z,52.97
2018-02-10T09:11:16.155Z,43.80
2018-02-10T09:13:43.596Z,45.90
2018-02-10T09:16:18.155Z,37.30
2018-02-10T09:18:45.591Z,49.27
2018-02-10T09:21:13.044Z,42.20
2018-02-10T09:23:40.499Z,42.17
2018-02-10T09:26:07.952Z,34.47
2018-02-10T09:28:35.394Z,44.20
2018-02-10T09:31:02.860Z,46.03
2018-02-10T09:33:30.292Z,36.30
2018-02-10T09:35:57.744Z,38.40
2018-02-10T09:38:25.180Z,30.50
2018-02-10T09:40:54.383Z,38.47
2018-02-10T09:43:22.588Z,44.00
2018-02-10T09:45:50.033Z,38.03
2018-02-10T09:48:17.463Z,35.80
2018-02-10T09:50:45.684Z,41.47
2018-02-10T09:53:13.129Z,32.80
2018-02-10T09:55:40.571Z,33.20
2018-02-10T09:58:08.016Z,39.97
2018-02-10T10:00:36.220Z,33.50
2018-02-10T10:03:03.670Z,35.37
2018-02-10T10:05:31.113Z,34.57
2018-02-10T10:08:01.442Z,35.47
2018-02-10T10:10:29.652Z,39.90
2018-02-10T10:12:57.376Z,44.17
2018-02-10T10:15:25.579Z,45.10
2018-02-10T10:17:53.019Z,37.67
2018-02-10T10:20:21.474Z,39.10
2018-02-10T10:22:48.951Z,39.27
2018-02-10T10:25:17.209Z,38.70
2018-02-10T10:27:45.492Z,41.03
2018-02-10T10:30:13.767Z,42.37
2018-02-10T10:32:43.072Z,48.67
2018-02-10T10:35:11.356Z,39.07
2018-02-10T10:37:38.795Z,38.30
2018-02-10T10:40:06.259Z,34.97
2018-02-10T10:42:34.541Z,34.70
2018-02-10T10:45:02.752Z,33.67
2018-02-10T10:47:30.276Z,31.77
2018-02-10T10:49:58.468Z,38.00
2018-02-10T10:52:26.932Z,33.07
2018-02-10T10:54:55.140Z,38.87
2018-02-10T10:57:22.591Z,36.97
2018-02-10T10:59:50.012Z,27.87
2018-02-10T11:02:18.235Z,30.33
2018-02-10T11:04:45.691Z,34.60
2018-02-10T11:07:13.130Z,29.00
2018-02-10T11:09:40.666Z,26.80
2018-02-10T11:12:08.874Z,31.57
2018-02-10T11:14:36.303Z,34.17
2018-02-10T11:17:05.335Z,28.20
2018-02-10T11:19:32.772Z,30.90
2018-02-10T11:22:00.220Z,31.70
2018-02-10T11:24:27.652Z,24.40
2018-02-10T11:26:55.100Z,27.40
2018-02-10T11:29:22.549Z,24.90
2018-02-10T11:31:49.994Z,20.17
2018-02-10T11:34:17.431Z,20.20
2018-02-10T11:36:44.881Z,22.67
2018-02-10T11:39:12.312Z,23.50
2018-02-10T11:41:40.518Z,19.20
2018-02-10T11:44:07.952Z,21.50
2018-02-10T11:46:35.393Z,18.43
2018-02-10T11:49:03.602Z,17.07
2018-02-10T11:51:31.072Z,19.73
2018-02-10T11:53:58.521Z,26.00
2018-02-10T11:56:25.961Z,23.17
2018-02-10T11:58:53.392Z,22.07
2018-02-10T12:01:21.611Z,20.87
2018-02-10T12:03:49.061Z,24.10
2018-02-10T12:06:16.592Z,20.83
2018-02-10T12:08:44.808Z,26.90
2018-02-10T12:11:12.347Z,23.97
2018-02-10T12:13:43.670Z,22.87
2018-02-10T12:16:11.960Z,24.37
2018-02-10T12:18:39.459Z,31.50
2018-02-10T12:21:06.905Z,25.13
2018-02-10T12:23:34.338Z,31.83
2018-02-10T12:26:01.785Z,30.70
2018-02-10T12:28:30.052Z,28.43
2018-02-10T12:30:58.252Z,31.50
2018-02-10T12:33:25.703Z,21.70
2018-02-10T12:35:53.145Z,25.97
2018-02-10T12:38:21.424Z,30.90
2018-02-10T12:40:49.640Z,24.23
2018-02-10T12:43:17.083Z,24.60
2018-02-10T12:45:44.509Z,25.97
2018-02-10T12:51:13.643Z,23.30
2018-02-10T12:53:41.844Z,18.87
2018-02-10T12:56:09.280Z,25.67
2018-02-10T12:58:36.723Z,19.30
2018-02-10T13:01:04.931Z,23.90
2018-02-10T13:03:32.371Z,16.13
2018-02-10T13:05:59.807Z,20.20
2018-02-10T13:08:28.088Z,17.10
2018-02-10T13:10:56.295Z,18.33
2018-02-10T13:13:23.733Z,20.90
2018-02-10T13:15:51.174Z,17.63
2018-02-10T13:18:19.378Z,17.50
2018-02-10T13:20:46.820Z,18.07
2018-02-10T13:23:14.268Z,18.07
2018-02-10T13:25:41.701Z,21.40
2018-02-10T13:28:09.146Z,17.20
2018-02-10T13:30:36.588Z,15.80
2018-02-10T13:33:04.023Z,15.90
2018-02-10T13:35:31.467Z,15.87
2018-02-10T13:37:58.931Z,18.70
2018-02-10T13:40:27.129Z,23.33
2018-02-10T13:42:54.594Z,26.93
2018-02-10T13:45:22.009Z,19.67
2018-02-10T13:47:49.444Z,19.70
2018-02-10T13:50:17.669Z,24.73
2018-02-10T13:52:45.103Z,21.57
2018-02-10T13:55:12.555Z,20.20
2018-02-10T13:57:40.000Z,19.87
2018-02-10T14:00:08.216Z,17.33
2018-02-10T14:02:35.682Z,20.80
2018-02-10T14:05:03.138Z,22.13
2018-02-10T14:07:30.579Z,16.93
2018-02-10T14:09:58.020Z,16.20
2018-02-10T14:12:25.454Z,24.13
2018-02-10T14:14:53.691Z,14.37
2018-02-10T14:17:21.142Z,19.43
2018-02-10T14:19:48.598Z,17.57
2018-02-10T14:22:16.045Z,18.27
2018-02-10T14:24:43.494Z,19.93
2018-02-10T14:27:17.154Z,23.77
2018-02-10T14:29:45.346Z,20.80
2018-02-10T14:32:12.791Z,19.80
2018-02-10T14:34:40.999Z,15.33
2018-02-10T14:37:08.502Z,15.07
2018-02-10T14:39:36.020Z,15.87
2018-02-10T14:42:03.482Z,17.47
2018-02-10T14:44:30.924Z,20.40
2018-02-10T14:46:58.373Z,11.27
2018-02-10T14:49:25.797Z,17.93
2018-02-10T14:51:53.344Z,15.90
2018-02-10T14:54:20.774Z,14.03
2018-02-10T14:56:48.224Z,15.87
2018-02-10T14:59:15.654Z,20.17
2018-02-10T15:01:43.095Z,22.10
2018-02-10T15:04:11.314Z,14.07
2018-02-10T15:06:38.768Z,19.70
2018-02-10T15:09:06.204Z,19.40
2018-02-10T15:11:34.405Z,21.57
2018-02-10T15:14:01.860Z,20.07
2018-02-10T15:16:29.293Z,19.90
2018-02-10T15:18:56.728Z,16.90
2018-02-10T15:21:25.947Z,20.60
2018-02-10T15:23:53.392Z,17.30
2018-02-10T15:26:21.604Z,18.03
2018-02-10T15:28:49.063Z,13.90
2018-02-10T15:34:27.990Z,20.80
2018-02-10T15:36:55.435Z,14.10
2018-02-10T15:39:23.640Z,18.90
2018-02-10T15:41:51.101Z,18.87
2018-02-10T15:44:18.634Z,24.50
2018-02-10T15:46:46.860Z,15.20
2018-02-10T15:49:14.314Z,18.83
2018-02-10T15:51:41.775Z,16.90
2018-02-10T15:54:09.219Z,17.47
2018-02-10T15:56:36.665Z,17.50
2018-02-10T15:59:04.156Z,19.60
2018-02-10T16:01:31.569Z,15.10
2018-02-10T16:03:58.996Z,23.73
2018-02-10T16:06:27.207Z,14.83
2018-02-10T16:08:54.661Z,18.80
2018-02-10T16:11:22.116Z,25.33
2018-02-10T16:13:49.563Z,24.33
2018-02-10T16:16:17.008Z,20.27
2018-02-10T16:18:44.459Z,19.93
2018-02-10T16:21:12.690Z,20.27
2018-02-10T16:23:40.193Z,19.10
2018-02-10T16:26:08.406Z,17.70
2018-02-10T16:28:35.860Z,18.67
2018-02-10T16:31:03.310Z,19.03
2018-02-10T16:33:30.749Z,21.77
2018-02-10T16:35:58.192Z,26.10
2018-02-10T16:38:27.525Z,23.73
2018-02-10T16:40:54.960Z,21.90
2018-02-10T16:43:22.413Z,24.07
2018-02-10T16:45:50.630Z,18.87
2018-02-10T16:48:18.071Z,23.43
2018-02-10T16:50:45.535Z,26.47
2018-02-10T16:53:12.994Z,21.43
2018-02-10T16:55:40.435Z,21.40
2018-02-10T16:58:07.877Z,24.60
2018-02-10T17:00:36.099Z,20.30
2018-02-10T17:03:03.549Z,22.57
2018-02-10T17:05:30.993Z,25.63
2018-02-10T17:07:58.565Z,24.60
2018-02-10T17:12:49.907Z,23.90
2018-02-10T17:15:17.364Z,25.67
2018-02-10T17:17:44.816Z,25.73
2018-02-10T17:20:12.245Z,23.33
2018-02-10T17:22:40.731Z,28.90
2018-02-10T17:25:08.169Z,25.97
2018-02-10T17:27:36.376Z,26.73
2018-02-10T17:30:03.829Z,24.60
2018-02-10T17:32:31.284Z,24.13
2018-02-10T17:34:58.734Z,21.47
2018-02-10T17:37:26.200Z,25.93
2018-02-10T17:39:53.658Z,27.80
2018-02-10T17:42:21.112Z,29.53
2018-02-10T17:44:48.560Z,24.20
2018-02-10T17:47:16.005Z,30.00
2018-02-10T17:49:43.503Z,25.20
2018-02-10T17:52:10.945Z,22.63
2018-02-10T17:54:38.397Z,24.43
2018-02-10T17:57:05.866Z,25.70
2018-02-10T17:59:33.304Z,24.70
2018-02-10T18:02:00.852Z,23.17
2018-02-10T18:04:29.073Z,25.43
2018-02-10T18:06:57.279Z,25.50
2018-02-10T18:09:24.716Z,24.50
2018-02-10T18:11:52.155Z,25.30
2018-02-10T18:14:19.606Z,22.13
2018-02-10T18:16:47.051Z,28.03
2018-02-10T18:19:14.573Z,23.10
2018-02-10T18:21:41.952Z,25.80
2018-02-10T18:24:09.405Z,25.60
2018-02-10T18:26:36.912Z,23.80
2018-02-10T18:29:05.062Z,32.27
2018-02-10T18:31:32.514Z,23.00
2018-02-10T18:33:59.965Z,20.90
2018-02-10T18:36:27.427Z,25.37
2018-02-10T18:38:54.889Z,24.60
2018-02-10T18:41:22.344Z,25.90
2018-02-10T18:43:49.784Z,31.60
2018-02-10T18:46:17.232Z,26.93
2018-02-10T18:48:44.677Z,20.57
2018-02-10T18:51:12.908Z,27.03
2018-02-10T18:53:40.351Z,27.60
2018-02-10T18:56:08.622Z,28.50
2018-02-10T18:58:36.049Z,25.47
2018-02-10T19:01:04.262Z,26.43
2018-02-10T19:03:31.701Z,29.23
2018-02-10T19:06:04.461Z,32.27
2018-02-10T19:08:32.725Z,28.33
2018-02-10T19:11:00.206Z,28.87
2018-02-10T19:13:28.440Z,27.40
2018-02-10T19:15:55.943Z,24.10
2018-02-10T19:18:24.171Z,25.20
2018-02-10T19:20:51.607Z,25.60
2018-02-10T19:23:19.091Z,27.70
2018-02-10T19:25:46.549Z,22.23
2018-02-10T19:28:14.400Z,27.47
2018-02-10T19:30:41.842Z,25.60
2018-02-10T19:33:10.323Z,32.40
2018-02-10T19:35:37.772Z,31.43
2018-02-10T19:38:05.224Z,32.57
2018-02-10T19:40:33.672Z,27.50
2018-02-10T19:43:01.998Z,34.40
2018-02-10T19:45:29.449Z,41.47
2018-02-10T19:48:00.472Z,30.90
2018-02-10T19:50:27.925Z,32.40
2018-02-10T19:52:55.352Z,31.00
2018-02-10T19:55:22.809Z,30.67
2018-02-10T19:57:50.249Z,33.00
2018-02-10T20:00:23.777Z,35.27
2018-02-10T20:02:51.989Z,36.00
2018-02-10T20:05:19.441Z,42.03
2018-02-10T20:07:46.881Z,34.80
2018-02-10T20:10:14.368Z,39.53
2018-02-10T20:12:41.907Z,35.07
2018-02-10T20:15:09.352Z,32.00
2018-02-10T20:17:36.794Z,27.10
2018-02-10T20:20:05.015Z,31.60
2018-02-10T20:22:32.497Z,32.27
2018-02-10T20:24:59.949Z,35.80
2018-02-10T20:27:27.407Z,33.97
2018-02-10T20:29:54.852Z,36.70
2018-02-10T20:32:22.344Z,34.40
2018-02-10T20:34:49.787Z,41.87
2018-02-10T20:37:18.214Z,36.80
2018-02-10T20:39:45.644Z,34.73
2018-02-10T20:42:13.083Z,37.17
2018-02-10T20:44:40.525Z,39.23
2018-02-10T20:47:08.023Z,31.33
2018-02-10T20:49:35.455Z,35.87
2018-02-10T20:52:02.922Z,31.00
2018-02-10T20:54:30.433Z,42.13
2018-02-10T20:56:57.871Z,36.53
2018-02-10T20:59:26.170Z,35.20
2018-02-10T21:01:53.615Z,32.47
2018-02-10T21:04:21.087Z,36.20
2018-02-10T21:06:48.530Z,30.60
2018-02-10T21:09:15.985Z,35.43
2018-02-10T21:11:43.430Z,41.23
2018-02-10T21:14:11.718Z,40.47
2018-02-10T21:16:39.902Z,33.00
2018-02-10T21:19:07.346Z,36.33
2018-02-10T21:21:34.796Z,34.07
2018-02-10T21:24:03.012Z,31.57
2018-02-10T21:26:31.478Z,40.37
2018-02-10T21:28:58.978Z,38.10
2018-02-10T21:31:26.416Z,29.60
2018-02-10T21:33:53.876Z,35.23
2018-02-10T21:36:21.294Z,30.30
2018-02-10T21:38:48.759Z,32.90
2018-02-10T21:41:16.192Z,36.00
2018-02-10T21:43:43.635Z,32.70
2018-02-10T21:46:11.867Z,37.57
2018-02-10T21:48:41.342Z,40.60
2018-02-10T21:51:08.775Z,35.27
2018-02-10T21:53:41.063Z,40.57
2018-02-10T21:56:09.281Z,35.50
2018-02-10T21:58:36.728Z,31.13
2018-02-10T22:01:04.185Z,33.47
2018-02-10T22:03:31.620Z,32.70
2018-02-10T22:05:59.093Z,31.10
2018-02-10T22:08:26.535Z,27.83
2018-02-10T22:10:53.981Z,36.00
2018-02-10T22:13:21.425Z,31.90
2018-02-10T22:15:49.735Z,34.73
2018-02-10T22:18:17.163Z,23.70
2018-02-10T22:20:46.394Z,26.57
2018-02-10T22:23:14.823Z,25.23
2018-02-10T22:25:42.271Z,24.73
2018-02-10T22:28:09.724Z,22.30
2018-02-10T22:30:37.185Z,21.50
2018-02-10T22:33:04.633Z,20.60
2018-02-10T22:35:32.083Z,21.33
2018-02-10T22:37:59.595Z,22.83
2018-02-10T22:40:27.058Z,22.10
2018-02-10T22:42:55.266Z,22.97
2018-02-10T22:45:22.813Z,26.00
2018-02-10T22:47:50.235Z,27.03
2018-02-10T22:50:18.469Z,32.00
2018-02-10T22:52:45.930Z,22.57
2018-02-10T22:55:13.371Z,25.23
2018-02-10T22:57:40.878Z,26.03
2018-02-10T23:00:08.307Z,27.67
2018-02-10T23:02:35.768Z,25.57
2018-02-10T23:05:03.260Z,23.13
2018-02-10T23:07:31.475Z,28.57
2018-02-10T23:09:58.933Z,22.23
2018-02-10T23:12:26.388Z,29.40
2018-02-10T23:14:53.825Z,21.90
2018-02-10T23:17:21.285Z,21.80
2018-02-10T23:19:48.818Z,30.13
2018-02-10T23:22:17.030Z,26.10
2018-02-10T23:24:44.489Z,24.30
2018-02-10T23:27:11.945Z,26.57
2018-02-10T23:29:39.385Z,26.73
2018-02-10T23:32:06.832Z,25.07
2018-02-10T23:34:34.270Z,25.90
2018-02-10T23:37:02.494Z,26.07
2018-02-10T23:39:29.949Z,19.73
2018-02-10T23:41:57.406Z,30.73
2018-02-10T23:44:24.860Z,22.17
2018-02-10T23:46:52.319Z,20.43
2018-02-10T23:49:19.775Z,26.73
2018-02-10T23:51:47.221Z,23.50
2018-02-10T23:54:14.689Z,21.43
2018-02-10T23:56:42.139Z,16.73
2018-02-10T23:59:09.607Z,19.50
